createdAt,value
2023-03-26T00:01:29.719Z,1.92
2023-03-26T00:03:57.502Z,2.00
2023-03-26T00:06:27.281Z,1.92
2023-03-26T00:08:55.548Z,2.05
2023-03-26T00:11:23.685Z,2.15
2023-03-26T00:13:53.557Z,2.08
2023-03-26T00:16:21.128Z,2.07
2023-03-26T00:18:48.938Z,2.25
2023-03-26T00:21:17.703Z,2.38
2023-03-26T00:23:44.851Z,2.88
2023-03-26T00:26:12.801Z,2.67
2023-03-26T00:28:41.415Z,2.97
2023-03-26T00:31:11.457Z,2.63
2023-03-26T00:33:40.904Z,2.90
2023-03-26T00:36:11.252Z,3.65
2023-03-26T00:38:39.201Z,2.75
2023-03-26T00:41:22.591Z,2.40
2023-03-26T00:43:52.154Z,3.15
2023-03-26T00:46:19.326Z,2.92
2023-03-26T00:48:46.577Z,3.33
2023-03-26T00:51:15.994Z,3.08
2023-03-26T00:53:44.538Z,3.40
2023-03-26T00:56:11.250Z,3.83
2023-03-26T00:58:38.732Z,3.67
2023-03-26T01:01:15.345Z,3.83
2023-03-26T01:04:00.923Z,3.90
2023-03-26T01:06:36.033Z,4.27
2023-03-26T01:09:13.485Z,4.15
2023-03-26T01:11:40.622Z,3.38
2023-03-26T01:14:11.711Z,3.80
2023-03-26T01:16:45.019Z,3.75
2023-03-26T01:19:26.183Z,4.00
2023-03-26T01:21:53.210Z,4.18
2023-03-26T01:24:19.948Z,4.03
2023-03-26T01:27:09.656Z,4.00
2023-03-26T01:29:55.677Z,4.03
2023-03-26T01:32:34.401Z,4.17
2023-03-26T01:35:26.405Z,4.35
2023-03-26T01:38:11.098Z,4.45
2023-03-26T01:40:46.887Z,4.50
2023-03-26T01:43:24.274Z,4.28
2023-03-26T01:45:52.635Z,4.30
2023-03-26T01:48:19.714Z,4.00
2023-03-26T01:50:46.526Z,3.90
2023-03-26T01:53:14.418Z,3.92
2023-03-26T01:55:59.287Z,3.47
2023-03-26T01:58:41.391Z,3.63
2023-03-26T02:01:30.126Z,3.45
2023-03-26T02:04:16.738Z,3.50
2023-03-26T02:07:02.032Z,3.55
2023-03-26T02:09:35.782Z,3.35
2023-03-26T02:12:04.390Z,4.33
2023-03-26T02:14:31.859Z,5.18
2023-03-26T02:17:00.053Z,4.72
2023-03-26T02:19:26.942Z,4.20
2023-03-26T02:21:59.909Z,4.07
2023-03-26T02:24:27.069Z,4.17
2023-03-26T02:26:53.822Z,4.90
2023-03-26T02:29:21.321Z,4.43
2023-03-26T02:31:48.555Z,4.35
2023-03-26T02:34:16.738Z,4.90
2023-03-26T02:36:43.565Z,4.30
2023-03-26T02:39:11.513Z,4.07
2023-03-26T02:41:39.135Z,4.13
2023-03-26T02:44:06.329Z,4.75
2023-03-26T02:46:33.923Z,4.38
2023-03-26T02:49:00.942Z,4.67
2023-03-26T02:51:28.808Z,4.75
2023-03-26T02:53:55.707Z,4.55
2023-03-26T02:56:22.586Z,5.03
2023-03-26T02:58:49.390Z,3.80
2023-03-26T03:01:18.335Z,4.57
2023-03-26T03:03:47.287Z,4.22
2023-03-26T03:06:17.096Z,4.43
2023-03-26T03:08:46.016Z,5.35
2023-03-26T03:11:18.342Z,5.05
2023-03-26T03:13:45.378Z,4.67
2023-03-26T03:16:12.243Z,4.32
2023-03-26T03:18:39.055Z,4.35
2023-03-26T03:21:06.226Z,4.40
2023-03-26T03:23:33.050Z,4.47
2023-03-26T03:25:59.846Z,4.37
2023-03-26T03:28:26.738Z,4.30
2023-03-26T03:30:53.559Z,4.13
2023-03-26T03:33:21.470Z,4.45
2023-03-26T03:35:49.562Z,4.80
2023-03-26T03:38:17.640Z,4.57
2023-03-26T03:40:44.613Z,4.88
2023-03-26T03:43:11.382Z,4.43
2023-03-26T03:45:38.110Z,5.10
2023-03-26T03:48:05.320Z,4.75
2023-03-26T03:50:34.398Z,5.10
2023-03-26T03:53:03.064Z,4.50
2023-03-26T03:55:29.945Z,4.57
2023-03-26T03:57:58.421Z,4.93
2023-03-26T04:00:25.456Z,5.18
2023-03-26T04:02:54.515Z,4.30
2023-03-26T04:05:21.637Z,4.35
2023-03-26T04:07:48.484Z,4.57
2023-03-26T04:10:16.068Z,4.90
2023-03-26T04:12:42.920Z,3.90
2023-03-26T04:15:10.152Z,4.70
2023-03-26T04:17:42.755Z,4.53
2023-03-26T04:20:16.263Z,4.78
2023-03-26T04:22:43.609Z,4.43
2023-03-26T04:25:12.925Z,4.50
2023-03-26T04:27:41.704Z,4.47
2023-03-26T04:30:14.690Z,4.78
2023-03-26T04:32:42.932Z,4.47
2023-03-26T04:35:14.263Z,3.83
2023-03-26T04:37:44.253Z,4.32
2023-03-26T04:40:17.178Z,4.60
2023-03-26T04:42:46.789Z,4.70
2023-03-26T04:45:23.032Z,4.40
2023-03-26T04:47:50.673Z,3.97
2023-03-26T04:50:17.839Z,4.50
2023-03-26T04:52:45.445Z,4.20
2023-03-26T04:55:29.034Z,4.30
2023-03-26T04:57:59.738Z,4.32
2023-03-26T05:00:27.805Z,4.20
2023-03-26T05:02:56.287Z,4.50
2023-03-26T05:05:24.010Z,4.60
2023-03-26T05:07:50.765Z,4.00
2023-03-26T05:10:20.199Z,4.15
2023-03-26T05:12:47.254Z,4.35
2023-03-26T05:15:15.313Z,4.10
2023-03-26T05:17:42.885Z,4.67
2023-03-26T05:20:23.308Z,4.57
2023-03-26T05:22:50.742Z,4.97
2023-03-26T05:25:18.375Z,5.20
2023-03-26T05:27:45.901Z,5.28
2023-03-26T05:30:16.322Z,5.13
2023-03-26T05:32:43.516Z,5.68
2023-03-26T05:35:10.492Z,5.50
2023-03-26T05:37:38.826Z,5.10
2023-03-26T05:40:11.483Z,5.50
2023-03-26T05:42:39.219Z,5.63
2023-03-26T05:45:08.464Z,5.70
2023-03-26T05:47:35.455Z,5.45
2023-03-26T05:50:02.332Z,5.97
2023-03-26T05:52:29.136Z,5.40
2023-03-26T05:54:56.823Z,6.57
2023-03-26T05:57:23.988Z,5.68
2023-03-26T05:59:50.886Z,5.55
2023-03-26T06:02:17.666Z,5.60
2023-03-26T06:04:46.008Z,5.50
2023-03-26T06:07:13.068Z,5.40
2023-03-26T06:09:40.889Z,5.45
2023-03-26T06:12:09.514Z,5.60
2023-03-26T06:14:37.026Z,4.90
2023-03-26T06:17:04.218Z,5.57
2023-03-26T06:19:30.942Z,6.07
2023-03-26T06:21:57.749Z,5.18
2023-03-26T06:24:24.581Z,5.28
2023-03-26T06:26:52.296Z,6.05
2023-03-26T06:29:19.290Z,5.47
2023-03-26T06:31:46.337Z,6.37
2023-03-26T06:34:13.218Z,6.00
2023-03-26T06:36:40.452Z,6.55
2023-03-26T06:39:07.770Z,6.28
2023-03-26T06:41:35.583Z,6.32
2023-03-26T06:44:03.382Z,5.40
2023-03-26T06:46:30.411Z,5.93
2023-03-26T06:48:57.168Z,5.72
2023-03-26T06:51:23.938Z,5.88
2023-03-26T06:53:50.672Z,5.70
2023-03-26T06:56:17.346Z,5.70
2023-03-26T06:58:44.278Z,5.60
2023-03-26T07:01:11.392Z,6.20
2023-03-26T07:03:38.388Z,5.75
2023-03-26T07:06:05.457Z,6.20
2023-03-26T07:08:32.245Z,5.67
2023-03-26T07:10:59.003Z,5.15
2023-03-26T07:13:26.096Z,5.20
2023-03-26T07:15:52.785Z,5.07
2023-03-26T07:18:19.498Z,5.53
2023-03-26T07:20:51.190Z,4.83
2023-03-26T07:23:20.562Z,5.78
2023-03-26T07:25:48.542Z,4.78
2023-03-26T07:28:32.389Z,5.78
2023-03-26T07:31:05.055Z,4.80
2023-03-26T07:33:46.914Z,4.97
2023-03-26T07:36:34.083Z,4.88
2023-03-26T07:39:19.602Z,4.40
2023-03-26T07:41:54.561Z,4.60
2023-03-26T07:44:41.866Z,4.60
2023-03-26T07:47:35.994Z,4.00
2023-03-26T07:50:03.542Z,5.00
2023-03-26T07:52:30.681Z,5.07
2023-03-26T07:54:57.907Z,4.60
2023-03-26T07:57:59.473Z,5.70
2023-03-26T08:00:45.968Z,6.07
2023-03-26T08:03:53.538Z,6.30
2023-03-26T08:06:28.118Z,6.82
2023-03-26T08:09:22.810Z,6.80
2023-03-26T08:12:05.989Z,7.28
2023-03-26T08:14:47.362Z,7.17
2023-03-26T08:17:23.725Z,8.35
2023-03-26T08:20:07.288Z,7.85
2023-03-26T08:22:50.797Z,8.20
2023-03-26T08:25:34.789Z,8.30
2023-03-26T08:28:08.462Z,8.40
2023-03-26T08:30:35.845Z,8.48
2023-03-26T08:33:11.289Z,8.52
2023-03-26T08:35:44.574Z,8.75
2023-03-26T08:38:13.595Z,7.70
2023-03-26T08:40:55.473Z,7.87
2023-03-26T08:43:31.030Z,6.78
2023-03-26T08:46:31.536Z,6.68
2023-03-26T08:49:07.099Z,8.32
2023-03-26T08:52:02.961Z,7.30
2023-03-26T08:54:56.854Z,6.70
2023-03-26T08:57:50.509Z,6.10
2023-03-26T09:00:34.766Z,5.68
2023-03-26T09:03:39.007Z,5.82
2023-03-26T09:06:43.641Z,5.75
2023-03-26T09:09:32.031Z,6.23
2023-03-26T09:12:44.018Z,6.35
2023-03-26T09:15:48.679Z,5.97
2023-03-26T09:18:34.034Z,6.13
2023-03-26T09:21:00.841Z,7.25
2023-03-26T09:23:46.153Z,6.67
2023-03-26T09:26:34.892Z,6.38
2023-03-26T09:29:32.834Z,4.88
2023-03-26T09:32:22.051Z,3.90
2023-03-26T09:35:18.887Z,4.57
2023-03-26T09:37:58.952Z,5.43
2023-03-26T09:40:47.561Z,2.95
2023-03-26T09:43:39.603Z,5.20
2023-03-26T09:46:22.150Z,4.43
2023-03-26T09:48:49.165Z,4.18
2023-03-26T09:51:43.992Z,5.43
2023-03-26T09:54:32.168Z,4.60
2023-03-26T09:57:07.972Z,5.40
2023-03-26T09:59:40.659Z,6.57
2023-03-26T10:02:51.092Z,5.00
2023-03-26T10:05:28.129Z,5.43
2023-03-26T10:08:25.514Z,4.85
2023-03-26T10:11:17.116Z,3.83
2023-03-26T10:13:51.528Z,4.72
2023-03-26T10:16:31.389Z,4.65
2023-03-26T10:19:07.882Z,4.30
2023-03-26T10:21:50.511Z,3.75
2023-03-26T10:24:32.781Z,4.28
2023-03-26T10:27:18.499Z,4.55
2023-03-26T10:30:04.073Z,4.60
2023-03-26T10:32:38.043Z,5.20
2023-03-26T10:35:25.312Z,3.95
2023-03-26T10:38:09.371Z,4.97
2023-03-26T10:41:04.472Z,4.07
2023-03-26T10:44:08.009Z,4.68
2023-03-26T10:46:58.651Z,4.17
2023-03-26T10:50:01.271Z,3.90
2023-03-26T10:52:37.759Z,3.42
2023-03-26T10:55:13.449Z,3.08
2023-03-26T10:57:42.892Z,2.70
2023-03-26T11:00:25.638Z,2.30
2023-03-26T11:03:12.930Z,3.00
2023-03-26T11:06:01.890Z,2.30
2023-03-26T11:08:35.409Z,1.90
2023-03-26T11:11:47.266Z,2.03
2023-03-26T11:14:27.862Z,1.73
2023-03-26T11:17:14.890Z,2.03
2023-03-26T11:20:02.758Z,1.70
2023-03-26T11:22:46.689Z,1.80
2023-03-26T11:25:45.617Z,2.28
2023-03-26T11:28:49.669Z,2.33
2023-03-26T11:31:42.786Z,2.25
2023-03-26T11:34:20.341Z,2.60
2023-03-26T11:36:52.725Z,4.25
2023-03-26T11:39:44.210Z,1.95
2023-03-26T11:42:14.503Z,2.00
2023-03-26T11:44:55.801Z,21.17
2023-03-26T11:47:30.945Z,7.13
2023-03-26T11:50:00.250Z,2.50
2023-03-26T11:52:27.927Z,2.30
2023-03-26T11:54:58.479Z,2.23
2023-03-26T11:57:36.226Z,5.43
2023-03-26T12:00:17.948Z,2.30
2023-03-26T12:02:46.909Z,2.70
2023-03-26T12:05:15.592Z,2.47
2023-03-26T12:07:49.604Z,3.60
2023-03-26T12:10:33.397Z,2.13
2023-03-26T12:13:03.025Z,2.17
2023-03-26T12:15:32.019Z,2.90
2023-03-26T12:18:20.817Z,3.50
2023-03-26T12:20:48.248Z,3.07
2023-03-26T12:23:38.922Z,2.95
2023-03-26T12:26:18.220Z,2.60
2023-03-26T12:28:47.681Z,2.08
2023-03-26T12:31:19.333Z,2.30
2023-03-26T12:34:06.324Z,2.03
2023-03-26T12:36:36.085Z,6.63
2023-03-26T12:40:07.883Z,1.10
2023-03-26T12:44:44.404Z,1.60
2023-03-26T12:45:40.751Z,5.25
2023-03-26T12:48:12.943Z,4.33
2023-03-26T12:51:05.135Z,2.25
2023-03-26T12:53:35.056Z,1.60
2023-03-26T12:56:06.977Z,6.40
2023-03-26T12:58:41.070Z,3.50
2023-03-26T13:01:34.667Z,2.60
2023-03-26T13:04:28.751Z,3.13
2023-03-26T13:07:04.539Z,7.03
2023-03-26T13:09:39.551Z,6.60
2023-03-26T13:12:10.268Z,1.83
2023-03-26T13:15:22.570Z,1.23
2023-03-26T13:18:17.001Z,3.13
2023-03-26T13:20:52.752Z,4.95
2023-03-26T13:23:33.738Z,1.20
2023-03-26T13:26:06.350Z,1.35
2023-03-26T13:28:53.400Z,1.77
2023-03-26T13:31:51.341Z,1.60
2023-03-26T13:34:36.314Z,1.27
2023-03-26T13:37:20.553Z,1.08
2023-03-26T13:40:11.395Z,0.93
2023-03-26T13:42:55.508Z,1.67
2023-03-26T13:45:54.385Z,1.30
2023-03-26T13:48:43.070Z,1.27
2023-03-26T13:51:17.819Z,0.90
2023-03-26T13:53:56.802Z,0.82
2023-03-26T13:56:32.050Z,2.70
2023-03-26T13:59:08.782Z,1.05
2023-03-26T14:01:45.484Z,0.93
2023-03-26T14:04:24.470Z,0.77
2023-03-26T14:07:19.020Z,0.80
2023-03-26T14:09:51.642Z,1.10
2023-03-26T14:12:24.418Z,2.78
2023-03-26T14:15:00.284Z,3.40
2023-03-26T14:17:31.258Z,0.93
2023-03-26T14:20:23.782Z,3.25
2023-03-26T14:22:56.294Z,0.60
2023-03-26T14:25:56.587Z,1.20
2023-03-26T14:28:29.473Z,1.13
2023-03-26T14:31:19.497Z,0.98
2023-03-26T14:34:07.157Z,0.90
2023-03-26T14:36:52.967Z,0.73
2023-03-26T14:39:50.544Z,1.02
2023-03-26T14:42:55.201Z,0.85
2023-03-26T14:45:31.980Z,4.75
2023-03-26T14:48:01.813Z,0.93
2023-03-26T14:50:57.554Z,2.47
2023-03-26T14:53:33.668Z,0.93
2023-03-26T14:56:36.378Z,0.80
2023-03-26T14:59:41.112Z,1.77
2023-03-26T15:02:59.216Z,0.95
2023-03-26T15:05:44.501Z,2.90
2023-03-26T15:08:33.710Z,1.38
2023-03-26T15:11:25.541Z,1.33
2023-03-26T15:14:29.215Z,0.80
2023-03-26T15:17:13.912Z,0.68
2023-03-26T15:20:03.380Z,1.10
2023-03-26T15:23:18.547Z,0.95
2023-03-26T15:26:19.554Z,0.80
2023-03-26T15:29:36.992Z,0.70
2023-03-26T15:32:33.444Z,0.90
2023-03-26T15:35:18.447Z,3.07
2023-03-26T15:38:08.273Z,1.10
2023-03-26T15:40:43.909Z,2.20
2023-03-26T15:43:13.599Z,1.10
2023-03-26T15:46:12.097Z,0.80
2023-03-26T15:49:03.704Z,0.93
2023-03-26T15:51:53.621Z,0.60
2023-03-26T15:54:39.483Z,1.88
2023-03-26T15:57:31.420Z,1.27
2023-03-26T15:59:59.194Z,0.93
2023-03-26T16:02:45.041Z,1.00
2023-03-26T16:05:31.122Z,0.90
2023-03-26T16:08:16.651Z,1.10
2023-03-26T16:10:58.501Z,0.63
2023-03-26T16:13:37.587Z,2.97
2023-03-26T16:16:04.344Z,0.73
2023-03-26T16:18:38.148Z,2.72
2023-03-26T16:21:34.518Z,3.97
2023-03-26T16:24:07.285Z,8.88
2023-03-26T16:26:59.393Z,23.65
2023-03-26T16:29:28.758Z,1.93
2023-03-26T16:32:07.769Z,0.82
2023-03-26T16:34:53.915Z,1.25
2023-03-26T16:37:37.080Z,1.80
2023-03-26T16:40:22.429Z,0.70
2023-03-26T16:43:10.842Z,0.90
2023-03-26T16:46:08.702Z,0.90
2023-03-26T16:48:46.431Z,0.70
2023-03-26T16:51:32.236Z,1.48
2023-03-26T16:54:24.241Z,0.70
2023-03-26T16:57:28.894Z,0.80
2023-03-26T17:00:57.947Z,0.65
2023-03-26T17:03:37.718Z,0.50
2023-03-26T17:06:25.372Z,0.88
2023-03-26T17:09:04.217Z,0.60
2023-03-26T17:11:38.415Z,0.70
2023-03-26T17:14:21.946Z,0.50
2023-03-26T17:17:06.605Z,0.88
2023-03-26T17:19:44.401Z,0.82
2023-03-26T17:22:15.328Z,0.50
2023-03-26T17:24:57.973Z,0.70
2023-03-26T17:27:36.761Z,0.60
2023-03-26T17:30:41.014Z,0.60
2023-03-26T17:33:26.837Z,0.52
2023-03-26T17:36:43.302Z,0.63
2023-03-26T17:39:22.367Z,1.00
2023-03-26T17:41:52.572Z,1.00
2023-03-26T17:44:55.779Z,0.77
2023-03-26T17:47:45.284Z,0.50
2023-03-26T17:50:17.149Z,0.60
2023-03-26T17:53:04.707Z,0.47
2023-03-26T17:55:34.964Z,0.50
2023-03-26T17:58:04.873Z,0.63
2023-03-26T18:00:36.014Z,0.70
2023-03-26T18:03:18.603Z,1.00
2023-03-26T18:05:47.147Z,0.70
2023-03-26T18:08:52.777Z,0.75
2023-03-26T18:11:19.644Z,0.90
2023-03-26T18:14:20.509Z,0.50
2023-03-26T18:16:53.801Z,0.70
2023-03-26T18:19:23.140Z,0.60
2023-03-26T18:21:52.757Z,0.70
2023-03-26T18:24:32.516Z,0.80
2023-03-26T18:27:11.505Z,0.77
2023-03-26T18:29:46.846Z,0.60
2023-03-26T18:32:13.597Z,0.80
2023-03-26T18:34:50.105Z,0.70
2023-03-26T18:37:23.968Z,0.63
2023-03-26T18:40:11.705Z,0.95
2023-03-26T18:42:51.465Z,1.10
2023-03-26T18:45:36.371Z,0.77
2023-03-26T18:48:19.199Z,0.88
2023-03-26T18:50:48.451Z,1.00
2023-03-26T18:53:21.353Z,0.70
2023-03-26T18:55:50.639Z,0.80
2023-03-26T18:58:34.381Z,1.07
2023-03-26T19:01:04.625Z,0.88
2023-03-26T19:03:35.698Z,0.60
2023-03-26T19:06:04.716Z,1.02
2023-03-26T19:08:32.895Z,0.80
2023-03-26T19:11:04.381Z,0.63
2023-03-26T19:13:32.838Z,0.70
2023-03-26T19:16:07.534Z,0.90
2023-03-26T19:18:38.514Z,0.60
2023-03-26T19:21:11.151Z,0.90
2023-03-26T19:23:41.225Z,0.80
2023-03-26T19:26:10.596Z,0.52
2023-03-26T19:28:41.787Z,0.63
2023-03-26T19:31:14.909Z,0.60
2023-03-26T19:33:43.712Z,0.90
2023-03-26T19:36:13.560Z,0.80
2023-03-26T19:38:44.542Z,0.63
2023-03-26T19:41:23.763Z,0.50
2023-03-26T19:43:55.762Z,0.80
2023-03-26T19:46:23.397Z,0.65
2023-03-26T19:48:54.152Z,0.60
2023-03-26T19:51:35.752Z,0.70
2023-03-26T19:54:15.967Z,0.85
2023-03-26T19:56:43.629Z,0.52
2023-03-26T19:59:10.451Z,0.90
2023-03-26T20:01:37.458Z,0.77
2023-03-26T20:04:06.603Z,1.02
2023-03-26T20:06:43.373Z,0.52
2023-03-26T20:09:12.617Z,0.45
2023-03-26T20:11:40.783Z,0.47
2023-03-26T20:14:14.457Z,0.80
2023-03-26T20:16:43.108Z,0.70
2023-03-26T20:19:11.541Z,0.55
2023-03-26T20:21:38.339Z,0.57
2023-03-26T20:24:16.602Z,0.60
2023-03-26T20:26:48.020Z,0.50
2023-03-26T20:29:15.238Z,0.70
2023-03-26T20:31:43.367Z,0.80
2023-03-26T20:34:23.372Z,0.82
2023-03-26T20:36:56.069Z,0.93
2023-03-26T20:39:26.261Z,0.70
2023-03-26T20:41:54.724Z,0.50
2023-03-26T20:44:22.519Z,0.93
2023-03-26T20:46:50.393Z,0.80
2023-03-26T20:49:18.366Z,0.70
2023-03-26T20:51:46.809Z,0.70
2023-03-26T20:54:25.242Z,0.80
2023-03-26T20:56:54.165Z,1.00
2023-03-26T20:59:27.720Z,0.70
2023-03-26T21:01:57.526Z,0.85
2023-03-26T21:04:26.263Z,0.80
2023-03-26T21:06:57.561Z,0.90
2023-03-26T21:09:35.180Z,0.80
2023-03-26T21:12:06.121Z,1.00
2023-03-26T21:14:40.982Z,0.65
2023-03-26T21:17:20.611Z,0.80
2023-03-26T21:19:48.088Z,0.90
2023-03-26T21:22:36.970Z,1.20
2023-03-26T21:25:19.706Z,0.90
2023-03-26T21:28:19.443Z,1.00
2023-03-26T21:30:48.389Z,0.90
2023-03-26T21:33:15.100Z,1.35
2023-03-26T21:35:42.365Z,0.73
2023-03-26T21:38:10.691Z,1.00
2023-03-26T21:40:40.519Z,0.98
2023-03-26T21:43:11.822Z,0.60
2023-03-26T21:45:39.388Z,1.13
2023-03-26T21:48:06.575Z,1.13
2023-03-26T21:50:33.668Z,0.98
2023-03-26T21:53:01.672Z,0.88
2023-03-26T21:55:28.705Z,0.80
2023-03-26T21:58:04.535Z,1.00
2023-03-26T22:00:55.822Z,0.70
2023-03-26T22:03:32.998Z,1.20
2023-03-26T22:06:11.382Z,1.20
2023-03-26T22:08:40.618Z,1.03
2023-03-26T22:11:10.108Z,0.90
2023-03-26T22:13:38.602Z,1.02
2023-03-26T22:16:07.160Z,0.93
2023-03-26T22:18:33.965Z,1.00
2023-03-26T22:21:01.096Z,1.40
2023-03-26T22:23:36.648Z,1.10
2023-03-26T22:26:04.995Z,1.08
2023-03-26T22:28:32.152Z,1.00
2023-03-26T22:30:59.537Z,0.90
2023-03-26T22:33:26.747Z,0.80
2023-03-26T22:35:55.841Z,1.20
2023-03-26T22:38:23.027Z,1.17
2023-03-26T22:40:57.142Z,1.20
2023-03-26T22:43:24.160Z,1.45
2023-03-26T22:45:51.336Z,0.90
2023-03-26T22:48:18.310Z,1.08
2023-03-26T22:50:45.040Z,1.33
2023-03-26T22:53:12.022Z,1.13
2023-03-26T22:55:38.759Z,1.50
2023-03-26T22:58:05.427Z,1.00
2023-03-26T23:00:32.375Z,1.00
2023-03-26T23:03:00.610Z,1.10
2023-03-26T23:05:28.464Z,1.08
2023-03-26T23:07:55.906Z,1.50
2023-03-26T23:10:22.717Z,1.13
2023-03-26T23:12:49.634Z,1.27
2023-03-26T23:15:16.638Z,1.23
2023-03-26T23:17:43.389Z,1.10
2023-03-26T23:20:15.388Z,1.20
2023-03-26T23:22:43.067Z,1.13
2023-03-26T23:25:11.318Z,1.55
2023-03-26T23:27:40.025Z,1.52
2023-03-26T23:30:07.490Z,1.00
2023-03-26T23:32:38.246Z,1.48
2023-03-26T23:35:06.024Z,1.20
2023-03-26T23:37:35.093Z,1.10
2023-03-26T23:40:06.494Z,1.10
2023-03-26T23:42:34.568Z,1.15
2023-03-26T23:45:02.113Z,0.95
2023-03-26T23:47:34.290Z,0.90
2023-03-26T23:50:05.177Z,0.60
2023-03-26T23:52:31.940Z,1.00
2023-03-26T23:55:00.022Z,1.08
2023-03-26T23:57:27.354Z,0.80
2023-03-26T23:59:54.726Z,0.40
